Time;durP1;ratioP1;P1;durP2;ratioP2;P2;SDS_P1;SDS_P2;PMS_P1;PMS_P2;Temp;Humidity;BMP_temperature;BMP_pressure;BME280_temperature;BME280_humidity;BME280_pressure;Samples;Min_cycle;Max_cycle;Signal;HPM_P1;HPM_P2
2022/02/05 00:08:42;;;;;;;13.90;10.00;;;;;;;4.69;99.99;98249.27;105420;1268;61815;-74
2022/02/05 00:14:40;;;;;;;10.70;8.30;;;;;;;4.75;99.87;98244.89;105264;1271;69353;-73
2022/02/05 00:41:21;;;;;;;10.50;8.00;;;;;;;4.95;99.18;98247.81;105319;1271;69284;-74
2022/02/05 00:44:01;;;;;;;10.50;8.00;;;;;;;4.99;99.26;98251.66;105348;1271;73706;-74
2022/02/05 00:46:34;;;;;;;9.20;7.40;;;;;;;5.00;99.29;98253.02;105276;1271;61317;-74
2022/02/05 00:49:01;;;;;;;10.80;8.00;;;;;;;5.00;99.21;98248.41;105312;1271;61732;-74
2022/02/05 00:54:14;;;;;;;9.70;7.60;;;;;;;5.02;99.18;98249.01;105318;1271;69112;-74
2022/02/05 00:56:51;;;;;;;11.60;8.20;;;;;;;5.00;99.26;98238.02;105331;1271;74152;-74
2022/02/05 00:59:19;;;;;;;11.30;8.20;;;;;;;4.99;99.24;98251.11;105289;1271;61288;-75
2022/02/05 01:01:48;;;;;;;9.00;7.80;;;;;;;4.98;99.23;98243.98;105560;1270;61404;-75
2022/02/05 01:04:15;;;;;;;10.60;7.90;;;;;;;4.97;99.28;98244.87;105278;1271;76405;-75
2022/02/05 01:06:41;;;;;;;9.50;8.30;;;;;;;4.98;99.18;98246.80;105255;1271;69187;-75
2022/02/05 01:09:14;;;;;;;9.00;6.90;;;;;;;4.97;99.39;98243.32;105299;1271;73141;-75
2022/02/05 01:11:41;;;;;;;9.10;7.80;;;;;;;4.95;99.51;98231.44;104980;1271;469390;-74
2022/02/05 01:14:11;;;;;;;11.30;8.90;;;;;;;4.91;99.64;98212.35;105299;1271;61262;-74
2022/02/05 01:19:04;;;;;;;8.40;7.40;;;;;;;4.83;100.00;98230.71;105279;1271;69173;-75
2022/02/05 01:21:42;;;;;;;8.70;7.20;;;;;;;4.84;100.00;98233.67;105299;1271;72225;-75
2022/02/05 01:24:12;;;;;;;10.10;8.10;;;;;;;4.86;100.00;98232.65;105318;1271;61307;-75
2022/02/05 01:26:48;;;;;;;10.20;7.70;;;;;;;4.89;100.00;98226.16;105307;1271;61370;-76
2022/02/05 01:32:09;;;;;;;8.70;7.30;;;;;;;4.94;100.00;98229.27;105066;1270;70325;-74
2022/02/05 01:35:30;;;;;;;8.90;7.80;;;;;;;4.96;100.00;98235.48;105349;1271;73114;-74
2022/02/05 01:56:42;;;;;;;10.60;7.60;;;;;;;5.04;99.51;98210.88;105358;1271;76078;-75
2022/02/05 02:09:30;;;;;;;10.00;7.60;;;;;;;5.07;99.35;98227.98;105330;1270;61844;-74
2022/02/05 02:10:17;;;;;;;10.10;8.00;;;;;;;5.09;99.38;98233.49;105059;1271;75139;-76
2022/02/05 02:12:55;;;;;;;8.30;7.10;;;;;;;5.11;99.27;98236.36;105376;1271;69980;-74
2022/02/05 02:15:29;;;;;;;10.60;7.90;;;;;;;5.14;99.45;98243.60;105306;1271;73103;-75
2022/02/05 02:20:34;;;;;;;9.20;7.20;;;;;;;5.16;99.22;98244.88;105335;1271;61164;-74
2022/02/05 02:25:51;;;;;;;9.60;6.40;;;;;;;5.21;98.96;98233.15;105284;1270;69425;-74
2022/02/05 02:28:45;;;;;;;7.90;6.50;;;;;;;5.25;98.86;98235.75;105238;1268;73564;-75
2022/02/05 02:31:12;;;;;;;7.20;6.30;;;;;;;5.27;98.65;98234.38;105326;1269;61344;-75
2022/02/05 02:33:44;;;;;;;7.00;6.30;;;;;;;5.30;98.68;98235.62;105373;1271;61282;-75
2022/02/05 02:36:21;;;;;;;8.10;6.80;;;;;;;5.33;98.50;98231.95;105371;1272;75393;-73
2022/02/05 02:38:51;;;;;;;8.30;6.70;;;;;;;5.34;98.69;98229.25;105299;1269;70184;-75
2022/02/05 02:41:29;;;;;;;6.90;5.90;;;;;;;5.33;98.53;98231.23;105293;1271;73312;-75
2022/02/05 02:43:56;;;;;;;7.00;6.10;;;;;;;5.35;98.59;98229.92;105286;1272;61317;-75
2022/02/05 02:46:23;;;;;;;7.10;6.00;;;;;;;5.34;98.58;98227.98;105071;1271;61172;-75
2022/02/05 02:48:50;;;;;;;6.60;5.90;;;;;;;5.33;98.59;98218.91;104975;1272;74598;-75
2022/02/05 02:56:58;;;;;;;6.70;6.00;;;;;;;5.31;98.62;98231.86;105283;1274;61220;-75
2022/02/05 02:59:47;;;;;;;6.60;5.50;;;;;;;5.30;98.65;98229.32;105294;1271;61348;-73
2022/02/05 03:02:17;;;;;;;7.20;6.00;;;;;;;5.28;98.72;98233.09;105300;1271;74552;-76
2022/02/05 03:04:43;;;;;;;7.50;6.70;;;;;;;5.26;98.85;98232.84;105024;1274;67377;-73
2022/02/05 03:07:10;;;;;;;6.90;6.20;;;;;;;5.25;98.80;98235.20;105278;1271;73190;-74
2022/02/05 03:09:37;;;;;;;6.10;5.60;;;;;;;5.23;98.84;98231.06;105276;1271;61397;-74
2022/02/05 03:12:05;;;;;;;7.30;5.60;;;;;;;5.23;98.88;98230.91;105303;1271;61283;-75
2022/02/05 03:14:32;;;;;;;6.60;5.70;;;;;;;5.23;99.00;98231.63;105253;1269;75063;-74
2022/02/05 03:17:04;;;;;;;7.20;6.40;;;;;;;5.24;99.07;98234.90;105325;1271;69784;-74
2022/02/05 03:19:31;;;;;;;6.10;5.50;;;;;;;5.24;99.04;98230.69;105243;1272;71282;-77
2022/02/05 03:21:58;;;;;;;6.50;5.10;;;;;;;5.24;99.10;98239.51;105254;1271;61266;-75
2022/02/05 03:24:24;;;;;;;5.80;5.30;;;;;;;5.24;99.05;98239.67;105247;1271;61176;-74
2022/02/05 03:26:51;;;;;;;6.00;5.30;;;;;;;5.25;99.18;98244.86;105295;1272;61374;-76
2022/02/05 03:29:17;;;;;;;6.00;5.40;;;;;;;5.25;99.25;98246.45;105286;1271;68332;-75
2022/02/05 03:31:44;;;;;;;6.00;5.40;;;;;;;5.26;99.19;98237.77;105321;1271;61259;-74
2022/02/05 03:34:10;;;;;;;6.20;5.50;;;;;;;5.28;99.48;98239.98;105294;1272;61378;-74
2022/02/05 03:36:39;;;;;;;5.10;4.60;;;;;;;5.27;99.67;98238.42;105295;1269;61383;-74
2022/02/05 03:39:06;;;;;;;5.40;4.90;;;;;;;5.28;99.83;98247.70;105265;1271;75446;-75
2022/02/05 03:41:33;;;;;;;5.80;4.80;;;;;;;5.28;99.93;98247.90;105300;1272;69463;-74
2022/02/05 03:44:01;;;;;;;6.10;5.50;;;;;;;5.28;99.79;98246.64;105294;1271;74608;-75
2022/02/05 03:46:29;;;;;;;5.20;4.70;;;;;;;5.29;99.92;98252.59;105277;1271;61189;-76
2022/02/05 03:48:57;;;;;;;5.40;4.90;;;;;;;5.30;99.89;98265.41;105372;1269;61341;-74
2022/02/05 03:51:24;;;;;;;5.10;4.70;;;;;;;5.31;99.91;98263.39;105334;1271;76584;-75
2022/02/05 03:53:52;;;;;;;6.20;5.10;;;;;;;5.33;99.88;98259.09;105211;1273;69247;-76
2022/02/05 03:56:19;;;;;;;7.50;5.30;;;;;;;5.33;99.76;98258.71;105300;1271;74388;-74
2022/02/05 03:58:45;;;;;;;5.20;4.70;;;;;;;5.35;99.78;98258.79;105277;1268;61253;-74
2022/02/05 04:01:13;;;;;;;6.30;5.70;;;;;;;5.36;99.81;98262.09;105342;1271;61622;-76
2022/02/05 04:03:40;;;;;;;6.00;5.40;;;;;;;5.35;99.87;98257.72;105302;1271;75151;-74
2022/02/05 04:06:06;;;;;;;6.10;5.30;;;;;;;5.35;99.91;98258.08;105289;1270;70522;-74
2022/02/05 04:08:33;;;;;;;6.20;4.90;;;;;;;5.35;99.94;98263.89;105053;1274;73189;-73
2022/02/05 04:11:08;;;;;;;4.90;3.90;;;;;;;5.35;99.98;98266.37;105310;1271;61368;-74
2022/02/05 04:16:23;;;;;;;4.70;4.20;;;;;;;5.37;99.89;98275.02;105271;1271;74176;-74
2022/02/05 04:18:54;;;;;;;5.60;5.00;;;;;;;5.39;99.93;98278.44;105306;1271;68655;-75
2022/02/05 04:21:23;;;;;;;5.20;4.70;;;;;;;5.40;99.93;98283.84;105309;1271;72902;-75
2022/02/05 04:23:51;;;;;;;5.50;5.00;;;;;;;5.41;100.00;98292.23;105327;1270;61374;-76
2022/02/05 04:26:19;;;;;;;6.10;4.90;;;;;;;5.41;99.99;98296.09;105313;1271;61798;-74
2022/02/05 04:28:46;;;;;;;5.90;4.70;;;;;;;5.42;99.97;98302.57;105411;1271;76168;-75
2022/02/05 04:31:13;;;;;;;7.10;5.20;;;;;;;5.43;100.00;98303.91;105296;1271;68555;-74
2022/02/05 04:33:40;;;;;;;5.90;5.00;;;;;;;5.44;100.00;98310.77;105288;1271;73485;-74
2022/02/05 04:36:07;;;;;;;7.50;5.50;;;;;;;5.45;100.00;98310.69;105297;1271;61266;-78
2022/02/05 04:38:35;;;;;;;5.40;4.50;;;;;;;5.46;100.00;98323.52;105320;1271;61322;-74
2022/02/05 04:41:18;;;;;;;5.70;5.10;;;;;;;5.47;100.00;98331.91;105289;1271;74421;-75
2022/02/05 04:51:38;;;;;;;8.00;6.10;;;;;;;5.51;100.00;98354.94;105288;1271;61869;-73
2022/02/05 05:04:30;;;;;;;2.10;1.90;;;;;;;4.65;100.00;98440.55;105136;1270;61295;-74
2022/02/05 05:15:16;;;;;;;2.10;1.70;;;;;;;4.09;100.00;98480.48;105366;1271;61403;-73
2022/02/05 05:20:28;;;;;;;2.30;2.10;;;;;;;3.95;100.00;98491.55;105459;1271;75230;-75
2022/02/05 05:22:54;;;;;;;3.00;1.90;;;;;;;3.91;100.00;98502.80;105551;1271;69218;-76
2022/02/05 05:25:21;;;;;;;2.50;2.20;;;;;;;3.88;100.00;98512.27;105692;1271;72721;-75
2022/02/05 05:27:48;;;;;;;2.50;2.00;;;;;;;3.84;100.00;98516.29;105880;1270;61298;-75
2022/02/05 05:30:15;;;;;;;3.70;3.30;;;;;;;3.83;100.00;98523.23;106071;1271;61351;-75
2022/02/05 05:32:41;;;;;;;2.10;1.90;;;;;;;3.80;100.00;98527.08;106996;1271;75470;-75
2022/02/05 05:35:08;;;;;;;2.40;2.00;;;;;;;3.78;100.00;98542.95;106783;1270;69473;-75
2022/02/05 05:37:36;;;;;;;3.80;1.80;;;;;;;3.77;100.00;98547.73;108529;1270;71295;-76
2022/02/05 05:40:03;;;;;;;2.30;1.60;;;;;;;3.76;100.00;98558.52;107398;1269;61353;-74
2022/02/05 05:42:36;;;;;;;2.80;2.60;;;;;;;3.73;100.00;98560.41;108407;1269;60857;-75
2022/02/05 05:48:11;;;;;;;3.20;2.10;;;;;;;3.62;100.00;98577.96;105103;1271;69751;-75
2022/02/05 05:53:13;;;;;;;1.60;1.40;;;;;;;3.47;98.62;98591.09;105357;1271;62321;-75
2022/02/05 05:55:44;;;;;;;2.90;1.80;;;;;;;3.39;98.12;98592.87;105353;1269;61825;-75
2022/02/05 05:58:13;;;;;;;2.20;1.20;;;;;;;3.28;97.42;98603.34;105412;1271;75493;-75
2022/02/05 06:00:40;;;;;;;2.60;1.60;;;;;;;3.22;97.15;98612.92;105455;1271;69379;-76
2022/02/05 06:03:06;;;;;;;1.80;1.30;;;;;;;3.14;96.88;98619.91;105308;1271;72540;-75
2022/02/05 06:05:33;;;;;;;2.20;1.50;;;;;;;3.08;96.75;98622.26;105070;1271;61412;-74
2022/02/05 06:08:00;;;;;;;1.70;1.10;;;;;;;3.02;96.92;98626.73;105347;1270;61388;-75
2022/02/05 06:10:27;;;;;;;1.90;1.30;;;;;;;2.97;96.79;98637.84;105449;1271;75101;-74
2022/02/05 06:12:54;;;;;;;2.50;1.50;;;;;;;2.93;97.03;98644.69;105097;1272;69910;-74
2022/02/05 06:15:20;;;;;;;1.20;1.10;;;;;;;2.87;96.97;98647.03;105281;1271;74281;-74
2022/02/05 06:17:49;;;;;;;2.00;1.40;;;;;;;2.82;97.28;98651.09;105269;1271;61274;-74
2022/02/05 06:20:16;;;;;;;2.90;1.30;;;;;;;2.76;97.37;98648.19;105329;1271;61296;-74
2022/02/05 06:22:42;;;;;;;2.30;1.00;;;;;;;2.73;97.55;98652.33;105298;1271;76413;-75
2022/02/05 06:25:09;;;;;;;1.70;1.10;;;;;;;2.70;97.65;98662.44;105313;1269;68841;-76
2022/02/05 06:27:37;;;;;;;2.20;1.40;;;;;;;2.67;97.63;98665.74;105520;1271;72674;-75
2022/02/05 06:30:05;;;;;;;3.30;1.20;;;;;;;2.65;97.75;98672.30;105248;1271;61250;-74
2022/02/05 06:32:32;;;;;;;1.90;1.60;;;;;;;2.62;97.91;98676.97;105074;1271;61342;-73
2022/02/05 06:34:58;;;;;;;2.70;1.70;;;;;;;2.60;97.51;98673.17;105304;1270;76190;-74
2022/02/05 06:37:25;;;;;;;4.80;2.50;;;;;;;2.63;97.59;98677.30;105267;1271;70114;-75
2022/02/05 06:39:52;;;;;;;3.60;1.70;;;;;;;2.61;97.68;98682.10;105270;1269;61412;-74
2022/02/05 06:42:18;;;;;;;4.20;1.80;;;;;;;2.59;97.55;98686.77;105274;1271;61373;-75
2022/02/05 06:44:45;;;;;;;2.80;1.60;;;;;;;2.60;97.12;98690.55;105300;1271;61332;-74
2022/02/05 06:47:11;;;;;;;2.30;1.10;;;;;;;2.62;97.35;98691.86;105291;1271;61233;-73
2022/02/05 06:49:38;;;;;;;3.40;1.30;;;;;;;2.62;97.15;98695.73;105303;1270;69389;-74
2022/02/05 06:52:07;;;;;;;3.50;2.00;;;;;;;2.62;97.22;98699.40;105247;1271;61294;-74
2022/02/05 06:54:33;;;;;;;3.50;1.30;;;;;;;2.62;97.06;98703.79;104542;1271;1003197;-75
2022/02/05 06:57:01;;;;;;;2.60;1.60;;;;;;;2.64;96.98;98708.46;105326;1270;61260;-74
2022/02/05 06:59:28;;;;;;;3.30;1.40;;;;;;;2.64;97.13;98713.36;105469;1270;75152;-74
2022/02/05 07:01:54;;;;;;;2.10;1.20;;;;;;;2.64;96.68;98721.11;105292;1271;62008;-75
2022/02/05 07:04:24;;;;;;;3.10;1.60;;;;;;;2.69;96.35;98721.63;105275;1271;72139;-74
2022/02/05 07:06:53;;;;;;;;;;;;;;;2.72;96.48;98729.73;105322;1271;61317;-74
2022/02/05 07:09:22;;;;;;;4.90;1.80;;;;;;;2.74;96.45;98734.73;105304;1271;61259;-74
2022/02/05 07:11:51;;;;;;;3.70;2.10;;;;;;;2.78;96.45;98738.27;105061;1271;76658;-76
2022/02/05 07:14:21;;;;;;;3.40;1.60;;;;;;;2.82;96.22;98744.23;105254;1268;70307;-74
2022/02/05 07:17:01;;;;;;;2.80;1.30;;;;;;;2.86;96.00;98745.33;105242;1268;73455;-74
2022/02/05 07:22:04;;;;;;;3.10;1.40;;;;;;;2.93;94.81;98753.98;105280;1269;61348;-73
2022/02/05 07:30:20;;;;;;;3.00;1.70;;;;;;;3.12;93.74;98763.60;104824;1274;73813;-75
2022/02/05 07:32:47;;;;;;;3.30;2.00;;;;;;;3.15;93.59;98771.20;104602;1275;61373;-74
2022/02/05 07:35:13;;;;;;;3.30;1.70;;;;;;;3.22;93.23;98774.26;105082;1271;62103;-74
2022/02/05 07:37:40;;;;;;;2.50;1.60;;;;;;;3.28;92.68;98777.67;105306;1271;74383;-74
2022/02/05 07:40:07;;;;;;;3.40;1.30;;;;;;;3.35;92.74;98778.65;105316;1271;70585;-76
2022/02/05 07:42:34;;;;;;;2.90;1.50;;;;;;;3.40;91.91;98782.83;105272;1269;74633;-74
2022/02/05 07:45:00;;;;;;;4.70;1.80;;;;;;;3.46;91.23;98785.56;105298;1270;61194;-74
2022/02/05 07:47:32;;;;;;;4.90;2.10;;;;;;;3.53;91.48;98792.11;105283;1271;61180;-77
2022/02/05 07:49:59;;;;;;;3.80;2.00;;;;;;;3.57;91.60;98794.06;105314;1271;75101;-75
2022/02/05 07:52:25;;;;;;;3.40;1.50;;;;;;;3.61;91.29;98800.75;105314;1271;61268;-75
2022/02/05 07:54:52;;;;;;;4.10;2.00;;;;;;;3.63;90.08;98803.64;105241;1271;74513;-75
2022/02/05 07:57:19;;;;;;;4.60;1.90;;;;;;;3.68;89.46;98802.89;105266;1271;61327;-75
2022/02/05 07:59:45;;;;;;;4.00;1.80;;;;;;;3.71;88.99;98806.09;105319;1271;61305;-75
2022/02/05 08:02:12;;;;;;;5.50;1.90;;;;;;;3.72;88.57;98806.41;105275;1271;76191;-75
2022/02/05 08:04:39;;;;;;;3.60;1.70;;;;;;;3.68;89.27;98804.46;105028;1271;70510;-75
2022/02/05 08:07:07;;;;;;;4.70;2.00;;;;;;;3.70;89.06;98807.54;105263;1271;62675;-75
2022/02/05 08:09:53;;;;;;;3.30;1.80;;;;;;;3.78;88.18;98812.51;105302;1271;61297;-76
2022/02/05 08:12:20;;;;;;;6.10;2.30;;;;;;;3.85;86.88;98812.70;105296;1268;61281;-75
2022/02/05 08:14:50;;;;;;;5.40;2.30;;;;;;;3.91;87.56;98816.50;105284;1271;75326;-76
2022/02/05 08:17:26;;;;;;;4.70;2.20;;;;;;;3.95;88.11;98815.13;105239;1271;70284;-74
2022/02/05 08:19:54;;;;;;;4.70;1.90;;;;;;;4.01;87.86;98822.39;105306;1271;73138;-75
2022/02/05 08:22:20;;;;;;;3.30;2.00;;;;;;;4.08;85.65;98825.46;105243;1271;61814;-75
2022/02/05 08:24:48;;;;;;;5.20;2.10;;;;;;;4.20;86.84;98828.81;105261;1270;61863;-74
2022/02/05 08:27:15;;;;;;;4.30;1.80;;;;;;;4.33;85.99;98824.37;105251;1268;74336;-75
2022/02/05 08:29:53;;;;;;;3.30;1.60;;;;;;;4.38;85.75;98824.48;105261;1271;69411;-75
2022/02/05 08:32:23;;;;;;;4.10;1.90;;;;;;;4.38;82.92;98822.39;105236;1271;73247;-76
2022/02/05 08:34:50;;;;;;;3.20;1.60;;;;;;;4.38;82.72;98831.85;105269;1271;61335;-75
2022/02/05 08:37:16;;;;;;;3.00;1.50;;;;;;;4.39;82.00;98837.99;105228;1271;61428;-76
2022/02/05 08:39:44;;;;;;;3.30;1.60;;;;;;;4.42;81.43;98840.30;105282;1271;76184;-75
2022/02/05 08:42:11;;;;;;;5.90;1.50;;;;;;;4.55;82.30;98840.98;105284;1271;70220;-76
2022/02/05 08:44:38;;;;;;;4.00;1.70;;;;;;;4.66;81.23;98849.63;105280;1271;73060;-76
2022/02/05 08:47:05;;;;;;;3.10;1.30;;;;;;;4.72;79.71;98844.80;105398;1271;61302;-76
2022/02/05 08:49:31;;;;;;;3.30;1.20;;;;;;;4.78;80.77;98851.36;105217;1270;61999;-76
2022/02/05 08:52:01;;;;;;;1.60;1.00;;;;;;;4.87;80.87;98855.87;105271;1271;74637;-76
2022/02/05 08:54:28;;;;;;;4.90;1.60;;;;;;;4.93;80.02;98854.89;105277;1271;68809;-74
2022/02/05 08:56:55;;;;;;;2.60;1.30;;;;;;;4.99;81.07;98854.09;105294;1271;73559;-76
2022/02/05 08:59:23;;;;;;;4.60;1.60;;;;;;;5.04;80.36;98854.05;105063;1271;61294;-76
2022/02/05 09:04:37;;;;;;;3.70;1.50;;;;;;;4.95;80.23;98854.65;105265;1271;74719;-75
2022/02/05 09:07:04;;;;;;;2.80;1.40;;;;;;;4.83;80.02;98865.58;105305;1270;69619;-74
2022/02/05 09:09:45;;;;;;;1.70;1.10;;;;;;;4.81;81.04;98862.65;105275;1270;72904;-77
2022/02/05 09:12:29;;;;;;;2.90;1.40;;;;;;;4.87;80.64;98857.30;105285;1271;61301;-75
2022/02/05 09:14:56;;;;;;;3.20;1.30;;;;;;;4.82;81.13;98865.07;105001;1268;61271;-74
2022/02/05 09:17:23;;;;;;;3.50;1.40;;;;;;;4.86;81.47;98869.31;105025;1271;76175;-75
2022/02/05 09:19:50;;;;;;;3.00;1.50;;;;;;;4.95;81.08;98873.99;105254;1269;70243;-75
2022/02/05 09:22:17;;;;;;;4.00;1.60;;;;;;;5.01;79.99;98873.36;105258;1271;73293;-75
2022/02/05 09:24:44;;;;;;;2.00;1.00;;;;;;;5.10;78.91;98870.49;105513;1269;61394;-76
2022/02/05 09:27:12;;;;;;;2.70;0.90;;;;;;;5.19;79.29;98877.27;105307;1269;61116;-76
2022/02/05 09:29:57;;;;;;;4.00;1.50;;;;;;;5.31;78.41;98874.27;105255;1271;75330;-74
2022/02/05 09:32:24;;;;;;;7.50;4.20;;;;;;;5.42;78.69;98876.90;105266;1269;69347;-73
2022/02/05 09:34:51;;;;;;;3.50;1.60;;;;;;;5.56;77.91;98877.85;105294;1271;72292;-74
2022/02/05 09:37:17;;;;;;;2.80;1.40;;;;;;;5.63;76.94;98879.20;105208;1269;61487;-74
2022/02/05 09:39:44;;;;;;;4.40;2.10;;;;;;;5.72;76.44;98878.79;105280;1268;61377;-75
2022/02/05 09:42:12;;;;;;;5.20;2.50;;;;;;;5.80;75.46;98881.75;105254;1268;76029;-74
2022/02/05 09:44:38;;;;;;;4.80;1.90;;;;;;;5.89;76.52;98884.85;105246;1271;69382;-74
2022/02/05 09:47:06;;;;;;;3.60;1.40;;;;;;;5.92;74.52;98883.63;105270;1271;73472;-73
2022/02/05 09:49:32;;;;;;;2.60;1.00;;;;;;;5.90;75.20;98881.78;105047;1271;61409;-74
2022/02/05 09:52:20;;;;;;;6.40;1.20;;;;;;;5.84;75.52;98880.13;105256;1271;61737;-75
2022/02/05 09:54:47;;;;;;;4.30;1.20;;;;;;;5.79;74.55;98876.19;105270;1271;75103;-76
2022/02/05 09:57:15;;;;;;;2.90;1.50;;;;;;;5.73;75.18;98880.54;105286;1271;69101;-74
2022/02/05 09:59:52;;;;;;;3.00;1.50;;;;;;;5.72;75.98;98879.14;105286;1271;72571;-75
2022/02/05 10:02:18;;;;;;;5.50;3.00;;;;;;;5.81;74.58;98873.77;105315;1268;61263;-74
2022/02/05 10:05:07;;;;;;;4.30;1.90;;;;;;;5.95;76.23;98871.84;105293;1270;61391;-75
2022/02/05 10:07:38;;;;;;;5.50;2.10;;;;;;;6.13;75.77;98867.98;105434;1271;74324;-75
2022/02/05 10:10:06;;;;;;;4.80;1.20;;;;;;;6.22;74.93;98871.23;105502;1268;69064;-77
2022/02/05 10:12:33;;;;;;;4.80;1.60;;;;;;;6.22;71.99;98865.42;105324;1271;73153;-75
2022/02/05 10:15:01;;;;;;;3.50;1.90;;;;;;;6.21;72.53;98872.34;105273;1271;61599;-75
2022/02/05 10:17:45;;;;;;;3.90;2.20;;;;;;;6.26;74.38;98870.10;105002;1271;61462;-76
2022/02/05 10:20:13;;;;;;;4.80;2.00;;;;;;;6.39;74.02;98870.55;105394;1271;75856;-76
2022/02/05 10:22:46;;;;;;;3.70;1.50;;;;;;;6.37;72.64;98875.55;105304;1270;70235;-73
2022/02/05 10:25:27;;;;;;;5.50;3.10;;;;;;;6.33;73.00;98868.86;105484;1271;71284;-76
2022/02/05 10:27:55;;;;;;;5.50;2.30;;;;;;;6.33;71.59;98867.83;105469;1271;61299;-74
2022/02/05 10:30:26;;;;;;;5.20;2.00;;;;;;;6.33;71.97;98864.32;105369;1271;61838;-76
2022/02/05 10:36:00;;;;;;;4.50;1.80;;;;;;;6.31;71.98;98868.48;105339;1271;70124;-75
2022/02/05 10:44:20;;;;;;;3.90;1.90;;;;;;;6.55;70.12;98870.95;104785;1271;61897;-73
2022/02/05 10:46:52;;;;;;;3.40;1.40;;;;;;;6.47;68.99;98867.67;105349;1268;74528;-76
2022/02/05 10:49:49;;;;;;;6.30;2.90;;;;;;;6.35;66.10;98868.06;105466;1268;70285;-75
2022/02/05 10:52:31;;;;;;;5.00;2.60;;;;;;;6.30;67.13;98860.05;105333;1268;73221;-75
2022/02/05 11:05:51;;;;;;;5.60;2.40;;;;;;;5.86;66.15;98864.52;105373;1269;74576;-75
2022/02/05 11:08:19;;;;;;;6.80;3.00;;;;;;;5.74;65.33;98874.67;105261;1271;61307;-75
2022/02/05 11:18:39;;;;;;;5.30;2.40;;;;;;;5.41;68.11;98888.24;105718;1271;73199;-75
2022/02/05 11:21:06;;;;;;;3.70;2.10;;;;;;;5.45;67.27;98892.27;105979;1271;61310;-74
2022/02/05 11:23:34;;;;;;;4.90;2.30;;;;;;;5.50;67.12;98892.91;106136;1271;61133;-76
2022/02/05 11:26:02;;;;;;;4.80;2.40;;;;;;;5.55;67.84;98899.74;106078;1271;74068;-76
2022/02/05 11:28:42;;;;;;;6.20;2.10;;;;;;;5.60;68.36;98901.07;107616;1270;69229;-77
2022/02/05 11:31:35;;;;;;;3.50;2.30;;;;;;;5.54;67.35;98906.80;108203;1271;73081;-74
2022/02/05 11:34:28;;;;;;;5.40;2.50;;;;;;;5.46;68.50;98923.94;106940;1270;1002478;-75
2022/02/05 11:37:01;;;;;;;6.10;3.00;;;;;;;5.41;69.36;98921.52;107598;1269;61252;-74
2022/02/05 11:39:28;;;;;;;6.20;2.70;;;;;;;5.27;70.51;98930.45;105302;1271;72380;-75
2022/02/05 11:41:56;;;;;;;4.90;2.90;;;;;;;5.04;72.02;98933.45;105382;1271;69247;-76
2022/02/05 11:44:39;;;;;;;6.20;2.50;;;;;;;4.75;73.93;98942.13;105094;1271;72556;-77
2022/02/05 11:47:09;;;;;;;4.10;2.00;;;;;;;4.36;76.74;98954.72;105327;1271;61185;-75
2022/02/05 11:49:51;;;;;;;;;;;;;;;4.04;78.71;98970.48;105240;1271;61454;-75
2022/02/05 11:52:47;;;;;;;3.50;2.20;;;;;;;3.62;86.00;98988.48;105272;1270;75162;-76
2022/02/05 11:55:14;;;;;;;6.60;3.30;;;;;;;3.05;88.51;98970.09;104931;1274;69341;-74
2022/02/05 11:57:44;;;;;;;6.70;2.70;;;;;;;2.84;88.34;98960.15;104861;1274;74398;-75
2022/02/05 12:00:24;;;;;;;5.40;3.10;;;;;;;2.75;88.81;98952.92;104931;1274;61374;-73
2022/02/05 12:03:03;;;;;;;;;;;;;;;2.70;89.23;98952.41;104957;1274;61399;-76
2022/02/05 12:05:35;;;;;;;4.00;2.50;;;;;;;2.68;89.81;98950.54;104857;1274;75448;-74
2022/02/05 12:08:05;;;;;;;6.70;3.30;;;;;;;2.86;91.11;98938.83;104798;1274;70438;-75
2022/02/05 12:10:42;;;;;;;6.30;3.80;;;;;;;3.16;92.13;98932.30;104733;1275;70578;-75
2022/02/05 12:13:15;;;;;;;5.80;3.60;;;;;;;3.56;92.29;98928.63;104971;1274;61464;-74
2022/02/05 12:15:44;;;;;;;5.50;3.00;;;;;;;3.84;92.41;98926.65;105156;1274;61333;-74
2022/02/05 12:18:18;;;;;;;6.10;2.90;;;;;;;4.11;92.35;98924.13;104972;1274;75274;-74
2022/02/05 12:26:20;;;;;;;5.40;2.80;;;;;;;4.81;91.35;98916.52;104875;1275;61327;-75
2022/02/05 12:28:49;;;;;;;4.90;2.80;;;;;;;4.88;90.26;98914.66;104732;1274;62472;-76
2022/02/05 12:31:20;;;;;;;5.30;3.60;;;;;;;4.92;89.71;98914.28;104976;1271;75863;-76
2022/02/05 12:33:56;;;;;;;6.10;3.40;;;;;;;4.95;89.41;98909.91;105309;1271;68193;-75
2022/02/05 12:36:39;;;;;;;6.60;4.30;;;;;;;4.91;89.51;98911.67;105281;1271;73089;-77
2022/02/05 12:39:11;;;;;;;7.80;3.40;;;;;;;4.83;89.35;98917.67;105308;1269;62820;-76
2022/02/05 12:41:45;;;;;;;5.10;3.40;;;;;;;4.78;88.85;98922.65;105344;1271;61405;-74
2022/02/05 12:44:12;;;;;;;5.50;3.20;;;;;;;4.81;88.69;98917.25;105532;1270;76238;-78
2022/02/05 12:47:13;;;;;;;4.00;2.70;;;;;;;4.86;88.28;98920.70;105104;1271;68183;-75
2022/02/05 12:49:51;;;;;;;5.00;2.80;;;;;;;4.97;88.52;98924.43;104944;1274;73159;-75
2022/02/05 12:52:26;;;;;;;4.00;2.50;;;;;;;5.02;87.86;98921.02;104913;1274;61360;-75
2022/02/05 12:54:59;;;;;;;6.10;3.10;;;;;;;5.04;87.35;98925.70;105086;1274;61320;-77
2022/02/05 12:57:28;;;;;;;4.70;3.10;;;;;;;5.07;87.66;98927.70;104662;1275;75319;-77
2022/02/05 13:00:02;;;;;;;4.90;2.70;;;;;;;5.18;87.14;98928.92;104900;1274;69358;-73
2022/02/05 13:02:29;;;;;;;4.10;3.00;;;;;;;5.30;86.28;98927.52;104925;1275;73474;-76
2022/02/05 13:04:57;;;;;;;3.40;2.70;;;;;;;5.37;85.91;98929.98;104933;1274;61304;-74
2022/02/05 13:07:27;;;;;;;3.90;2.90;;;;;;;5.38;85.36;98938.44;104897;1274;62044;-76
2022/02/05 13:10:01;;;;;;;4.20;2.60;;;;;;;5.22;85.00;98941.41;104909;1274;76495;-76
2022/02/05 13:12:34;;;;;;;4.80;3.00;;;;;;;5.04;85.51;98940.86;103608;1274;1710058;-78
2022/02/05 13:15:07;;;;;;;5.00;2.90;;;;;;;4.85;85.80;98943.11;104922;1274;73366;-76
2022/02/05 13:25:54;;;;;;;4.60;3.00;;;;;;;4.53;87.64;98939.94;104879;1274;70081;-75
2022/02/05 13:36:37;;;;;;;5.50;2.90;;;;;;;4.42;88.26;98919.48;105349;1270;74987;-75
2022/02/05 13:42:14;;;;;;;4.40;3.20;;;;;;;4.47;87.94;98927.71;105251;1271;73225;-75
2022/02/05 13:45:52;;;;;;;6.90;3.70;;;;;;;4.54;88.13;98924.75;105029;1271;61224;-77
2022/02/05 13:47:43;;;;;;;5.90;3.80;;;;;;;4.64;88.06;98919.92;105047;1271;61182;-74
2022/02/05 13:50:19;;;;;;;5.60;3.90;;;;;;;4.71;88.09;98923.11;105267;1271;61322;-75
2022/02/05 13:52:48;;;;;;;6.90;4.70;;;;;;;4.78;88.18;98932.16;105071;1271;69244;-76
2022/02/05 13:55:23;;;;;;;9.70;5.60;;;;;;;4.81;88.21;98925.15;105245;1271;73165;-76
2022/02/05 13:58:12;;;;;;;7.60;5.10;;;;;;;4.95;87.67;98922.27;105281;1271;61473;-75
2022/02/05 14:00:50;;;;;;;12.40;6.50;;;;;;;5.23;87.29;98914.09;105150;1271;61793;-76
2022/02/05 14:03:26;;;;;;;12.40;7.00;;;;;;;5.49;86.66;98914.83;105317;1271;76370;-76
2022/02/05 14:06:09;;;;;;;9.80;5.70;;;;;;;5.61;86.04;98911.94;105334;1271;69208;-76
2022/02/05 14:08:58;;;;;;;8.40;5.60;;;;;;;5.54;85.63;98916.16;105279;1271;74530;-77
2022/02/05 14:11:31;;;;;;;8.20;5.00;;;;;;;5.46;85.18;98922.15;105331;1271;61300;-76
2022/02/05 14:14:00;;;;;;;5.90;4.00;;;;;;;5.43;83.98;98924.45;105339;1270;61366;-76
2022/02/05 14:16:37;;;;;;;6.00;3.30;;;;;;;5.40;83.96;98928.30;105410;1271;76701;-76
2022/02/05 14:19:05;;;;;;;7.90;3.80;;;;;;;5.40;82.41;98934.96;105115;1271;69453;-75
2022/02/05 14:21:40;;;;;;;5.10;3.10;;;;;;;5.38;83.00;98942.30;105328;1271;74333;-78
2022/02/05 14:24:23;;;;;;;6.90;3.50;;;;;;;5.38;79.76;98946.33;105414;1270;61364;-77
2022/02/05 14:27:04;;;;;;;8.00;3.60;;;;;;;5.34;79.39;98958.30;105368;1271;61249;-77
2022/02/05 14:29:39;;;;;;;5.30;3.60;;;;;;;5.26;78.39;98978.73;105058;1271;75240;-74
2022/02/05 14:32:20;;;;;;;7.50;5.50;;;;;;;5.09;82.63;98985.18;105356;1270;69547;-78
2022/02/05 14:42:47;;;;;;;8.90;6.70;;;;;;;3.45;91.88;99046.95;105608;1268;76113;-75
2022/02/05 14:45:13;;;;;;;6.80;5.80;;;;;;;3.13;94.77;99051.77;105418;1270;70437;-74
2022/02/05 14:47:40;;;;;;;8.50;7.20;;;;;;;2.83;96.24;99057.92;105251;1271;61179;-73
2022/02/05 14:50:07;;;;;;;12.00;7.50;;;;;;;2.54;97.37;99053.47;104979;1271;61281;-74
2022/02/05 14:52:34;;;;;;;11.10;8.40;;;;;;;2.30;98.38;99051.80;105440;1269;61338;-73
2022/02/05 14:55:01;;;;;;;10.40;8.10;;;;;;;2.12;99.39;99045.70;105298;1270;75135;-73
2022/02/05 14:57:27;;;;;;;10.80;8.80;;;;;;;2.00;99.19;99039.27;105280;1271;69472;-72
2022/02/05 14:59:54;;;;;;;12.10;9.00;;;;;;;1.92;99.94;99037.40;105263;1271;74881;-72